createdAt,value
2022-12-05T00:03:59.907Z,51.55
2022-12-05T00:09:04.829Z,51.15
2022-12-05T00:14:10.347Z,51.29
2022-12-05T00:19:15.716Z,51.16
2022-12-05T00:24:19.231Z,51.10
2022-12-05T00:29:22.833Z,51.05
2022-12-05T00:34:26.373Z,51.04
2022-12-05T00:39:30.699Z,50.87
2022-12-05T00:44:34.133Z,50.76
2022-12-05T00:49:37.467Z,51.08
2022-12-05T00:54:40.801Z,50.71
2022-12-05T00:59:44.283Z,50.98
2022-12-05T01:04:47.646Z,50.96
2022-12-05T01:09:51.049Z,50.97
2022-12-05T01:14:54.784Z,50.63
2022-12-05T01:19:58.164Z,50.82
2022-12-05T01:25:01.593Z,50.65
2022-12-05T01:30:05.634Z,50.69
2022-12-05T01:35:09.332Z,50.54
2022-12-05T01:40:12.913Z,50.79
2022-12-05T01:45:23.074Z,50.80
2022-12-05T01:50:26.471Z,50.62
2022-12-05T01:55:31.037Z,50.38
2022-12-05T02:00:34.526Z,50.81
2022-12-05T02:05:38.877Z,50.43
2022-12-05T02:10:50.760Z,50.08
2022-12-05T02:16:05.669Z,50.69
2022-12-05T02:21:24.786Z,50.98
2022-12-05T02:26:33.992Z,50.71
2022-12-05T02:32:41.726Z,50.80
2022-12-05T02:38:25.303Z,51.22
2022-12-05T02:44:05.685Z,50.99
2022-12-05T02:49:13.450Z,50.92
2022-12-05T02:54:43.198Z,51.27
2022-12-05T02:59:46.597Z,51.36
2022-12-05T03:04:50.014Z,51.04
2022-12-05T03:09:58.916Z,51.38
2022-12-05T03:15:26.179Z,51.41
2022-12-05T03:20:38.761Z,51.58
2022-12-05T03:26:00.558Z,51.54
2022-12-05T03:31:11.627Z,51.74
2022-12-05T03:36:28.577Z,52.02
2022-12-05T03:42:01.791Z,52.00
2022-12-05T03:47:20.689Z,52.24
2022-12-05T03:53:19.481Z,52.09
2022-12-05T03:58:30.873Z,52.59
2022-12-05T04:03:41.955Z,52.75
2022-12-05T04:08:53.993Z,53.33
2022-12-05T04:14:05.736Z,52.99
2022-12-05T04:19:09.331Z,53.35
2022-12-05T04:24:19.858Z,53.65
2022-12-05T04:29:32.157Z,53.72
2022-12-05T04:34:38.811Z,54.32
2022-12-05T04:39:51.415Z,54.51
2022-12-05T04:45:10.482Z,54.71
2022-12-05T04:50:16.707Z,54.63
2022-12-05T04:55:23.541Z,55.38
2022-12-05T05:00:30.486Z,55.46
2022-12-05T05:05:36.277Z,55.44
2022-12-05T05:10:52.636Z,55.94
2022-12-05T05:15:56.046Z,55.90
2022-12-05T05:20:59.915Z,56.42
2022-12-05T05:26:09.021Z,56.77
2022-12-05T05:31:13.932Z,56.32
2022-12-05T05:36:18.494Z,56.46
2022-12-05T05:41:25.063Z,56.71
2022-12-05T05:46:31.709Z,56.84
2022-12-05T05:51:35.061Z,56.63
2022-12-05T05:56:40.455Z,56.50
2022-12-05T06:01:43.799Z,56.10
2022-12-05T06:06:47.377Z,56.37
2022-12-05T06:11:50.732Z,56.15
2022-12-05T06:16:54.340Z,56.31
2022-12-05T06:21:57.999Z,56.00
2022-12-05T06:27:01.398Z,55.87
2022-12-05T06:32:05.238Z,55.40
2022-12-05T06:37:08.675Z,54.85
2022-12-05T06:42:12.066Z,54.62
2022-12-05T06:47:15.509Z,53.99
2022-12-05T06:52:18.734Z,53.76
2022-12-05T06:57:22.052Z,53.36
2022-12-05T07:02:25.412Z,53.02
2022-12-05T07:07:30.070Z,52.57
2022-12-05T07:12:34.553Z,52.20
2022-12-05T07:17:39.101Z,52.02
2022-12-05T07:22:42.309Z,51.81
2022-12-05T07:27:45.326Z,52.06
2022-12-05T07:32:48.225Z,51.89
2022-12-05T07:37:51.104Z,52.15
2022-12-05T07:42:54.206Z,51.96
2022-12-05T07:47:58.151Z,51.50
2022-12-05T07:53:01.578Z,51.02
2022-12-05T07:58:04.870Z,50.85
2022-12-05T08:03:08.042Z,50.90
2022-12-05T08:08:11.511Z,50.46
2022-12-05T08:13:14.924Z,50.39
2022-12-05T08:18:20.072Z,50.20
2022-12-05T08:23:25.262Z,50.17
2022-12-05T08:28:29.329Z,49.91
2022-12-05T08:33:32.826Z,49.82
2022-12-05T08:38:36.696Z,49.41
2022-12-05T08:43:40.746Z,49.24
2022-12-05T08:48:43.983Z,49.03
2022-12-05T08:53:47.480Z,48.86
2022-12-05T08:58:50.946Z,48.68
2022-12-05T09:03:54.544Z,48.68
2022-12-05T09:09:00.490Z,48.39
2022-12-05T09:14:04.628Z,48.21
2022-12-05T09:19:15.682Z,48.23
2022-12-05T09:24:19.113Z,48.05
2022-12-05T09:29:22.605Z,47.96
2022-12-05T09:34:25.890Z,47.80
2022-12-05T09:39:29.175Z,47.75
2022-12-05T09:44:47.578Z,47.40
2022-12-05T09:50:02.261Z,47.46
2022-12-05T09:55:13.416Z,47.73
2022-12-05T10:00:17.507Z,47.67
2022-12-05T10:05:47.993Z,47.86
2022-12-05T10:11:05.473Z,47.90
2022-12-05T10:16:17.730Z,48.29
2022-12-05T10:21:52.586Z,48.27
2022-12-05T10:27:02.807Z,48.19
2022-12-05T10:32:16.000Z,48.05
2022-12-05T10:37:24.005Z,48.19
2022-12-05T10:42:32.052Z,48.29
2022-12-05T10:47:36.447Z,48.57
2022-12-05T10:52:39.827Z,48.66
2022-12-05T10:57:43.246Z,49.44
2022-12-05T11:02:51.421Z,49.84
2022-12-05T11:07:56.944Z,50.32
2022-12-05T11:13:02.140Z,50.31
2022-12-05T11:18:20.068Z,50.62
2022-12-05T11:23:27.603Z,50.77
2022-12-05T11:28:37.791Z,51.03
2022-12-05T11:33:41.439Z,51.48
2022-12-05T11:38:45.019Z,51.81
2022-12-05T11:44:19.340Z,51.96
2022-12-05T11:50:03.457Z,52.34
2022-12-05T11:55:42.702Z,52.63
2022-12-05T12:01:08.343Z,53.04
2022-12-05T12:06:17.335Z,53.40
2022-12-05T12:11:29.772Z,53.23
2022-12-05T12:16:54.493Z,53.74
2022-12-05T12:22:20.678Z,54.09
2022-12-05T12:28:07.904Z,54.11
2022-12-05T12:33:31.780Z,54.39
2022-12-05T12:38:35.293Z,54.73
2022-12-05T12:44:10.736Z,54.77
2022-12-05T12:49:49.509Z,54.84
2022-12-05T12:55:11.407Z,55.22
2022-12-05T13:00:31.702Z,55.62
2022-12-05T13:05:54.270Z,55.98
2022-12-05T13:10:59.244Z,55.66
2022-12-05T13:16:06.583Z,56.04
2022-12-05T13:21:10.674Z,56.06
2022-12-05T13:26:14.835Z,56.92
2022-12-05T13:31:18.925Z,57.13
2022-12-05T13:36:23.108Z,57.53
2022-12-05T13:41:43.082Z,57.72
2022-12-05T13:46:50.846Z,58.17
2022-12-05T13:51:54.423Z,58.09
2022-12-05T13:57:02.768Z,58.72
2022-12-05T14:02:44.772Z,58.59
2022-12-05T14:07:55.039Z,58.85
2022-12-05T14:13:23.622Z,58.91
2022-12-05T14:18:50.485Z,58.84
2022-12-05T14:24:13.410Z,58.91
2022-12-05T14:29:53.968Z,59.21
2022-12-05T14:35:15.612Z,59.08
2022-12-05T14:40:26.954Z,59.31
2022-12-05T14:45:38.536Z,59.61
2022-12-05T14:50:45.211Z,59.69
2022-12-05T14:56:00.632Z,60.07
2022-12-05T15:01:09.173Z,60.14
2022-12-05T15:06:16.168Z,60.57
2022-12-05T15:11:23.698Z,60.81
2022-12-05T15:16:30.492Z,60.79
2022-12-05T15:21:42.684Z,60.98
2022-12-05T15:26:54.656Z,61.01
2022-12-05T15:32:21.753Z,61.01
2022-12-05T15:37:33.763Z,61.17
2022-12-05T15:42:43.160Z,61.09
2022-12-05T15:47:48.476Z,61.17
2022-12-05T15:53:29.422Z,61.20
2022-12-05T15:58:42.471Z,61.55
2022-12-05T16:03:57.822Z,60.96
2022-12-05T16:09:11.555Z,61.51
2022-12-05T16:14:31.105Z,61.42
2022-12-05T16:19:39.328Z,61.13
2022-12-05T16:24:59.612Z,61.17
2022-12-05T16:30:19.482Z,61.22
2022-12-05T16:35:35.009Z,61.18
2022-12-05T16:40:50.525Z,61.25
2022-12-05T16:45:56.996Z,61.43
2022-12-05T16:51:22.897Z,61.47
2022-12-05T16:56:27.680Z,61.63
2022-12-05T17:01:35.646Z,61.25
2022-12-05T17:06:42.140Z,61.41
2022-12-05T17:11:48.984Z,61.58
2022-12-05T17:16:53.188Z,61.73
2022-12-05T17:21:56.615Z,61.59
2022-12-05T17:27:00.176Z,61.73
2022-12-05T17:32:04.350Z,62.00
2022-12-05T17:37:08.518Z,62.16
2022-12-05T17:42:12.019Z,61.76
2022-12-05T17:47:18.175Z,62.09
2022-12-05T17:52:28.681Z,62.18
2022-12-05T17:57:35.119Z,62.40
2022-12-05T18:02:40.066Z,62.39
2022-12-05T18:07:45.515Z,62.56
2022-12-05T18:12:50.557Z,62.66
2022-12-05T18:17:53.955Z,62.46
2022-12-05T18:22:58.174Z,62.54
2022-12-05T18:28:01.960Z,62.72
2022-12-05T18:33:06.998Z,62.64
2022-12-05T18:38:11.413Z,62.88
2022-12-05T18:43:16.440Z,62.88
2022-12-05T18:53:45.126Z,63.05
2022-12-05T18:59:01.144Z,63.13
2022-12-05T19:04:06.348Z,63.26
2022-12-05T19:09:13.531Z,63.21
2022-12-05T19:14:19.734Z,63.19
2022-12-05T19:19:24.366Z,63.38
2022-12-05T19:24:28.823Z,63.30
2022-12-05T19:29:32.172Z,63.45
2022-12-05T19:34:35.526Z,63.84
2022-12-05T19:39:38.904Z,63.78
2022-12-05T19:44:42.198Z,64.07
2022-12-05T19:49:45.598Z,63.70
2022-12-05T19:54:48.887Z,63.83
2022-12-05T19:59:52.232Z,63.90
2022-12-05T20:04:55.644Z,64.37
2022-12-05T20:10:00.203Z,64.39
2022-12-05T20:15:06.954Z,64.47
2022-12-05T20:20:11.132Z,64.36
2022-12-05T20:25:16.127Z,64.75
2022-12-05T20:30:20.981Z,64.93
2022-12-05T20:35:24.676Z,64.53
2022-12-05T20:40:28.016Z,65.05
2022-12-05T20:45:31.376Z,64.80
2022-12-05T20:50:34.944Z,65.06
2022-12-05T20:55:38.282Z,65.39
2022-12-05T21:00:42.823Z,65.18
2022-12-05T21:05:46.548Z,65.49
2022-12-05T21:10:51.994Z,65.59
2022-12-05T21:15:55.513Z,65.34
2022-12-05T21:21:01.071Z,65.66
2022-12-05T21:26:07.588Z,65.84
2022-12-05T21:31:16.709Z,65.71
2022-12-05T21:36:22.087Z,66.15
2022-12-05T21:41:26.668Z,65.94
2022-12-05T21:46:30.417Z,66.24
2022-12-05T21:51:33.909Z,65.97
2022-12-05T21:56:37.631Z,66.17
2022-12-05T22:01:41.116Z,65.92
2022-12-05T22:06:44.833Z,66.40
2022-12-05T22:11:48.294Z,66.43
2022-12-05T22:16:51.706Z,66.01
2022-12-05T22:21:54.995Z,66.10
2022-12-05T22:26:58.581Z,66.47
2022-12-05T22:32:01.971Z,66.45
2022-12-05T22:37:05.400Z,66.55
2022-12-05T22:42:09.632Z,66.13
2022-12-05T22:47:13.280Z,66.43
2022-12-05T22:52:17.326Z,66.48
2022-12-05T22:57:20.608Z,66.45
2022-12-05T23:02:24.187Z,66.76
2022-12-05T23:07:27.803Z,66.80
2022-12-05T23:12:31.398Z,66.42
2022-12-05T23:17:35.311Z,66.56
2022-12-05T23:22:38.766Z,66.77
2022-12-05T23:27:42.198Z,66.51
2022-12-05T23:32:45.786Z,67.55
2022-12-05T23:37:49.271Z,68.94
2022-12-05T23:42:53.099Z,69.56
2022-12-05T23:47:58.457Z,70.52
2022-12-05T23:53:05.225Z,70.95
2022-12-05T23:58:08.910Z,71.04
